Time;durP1;ratioP1;P1;durP2;ratioP2;P2;SDS_P1;SDS_P2;PMS_P1;PMS_P2;Temp;Humidity;BMP_temperature;BMP_pressure;BME280_temperature;BME280_humidity;BME280_pressure;Samples;Min_cycle;Max_cycle;Signal;HPM_P1;HPM_P2
2023/11/30 00:00:11;;;;;;;2.03;0.73;;;-2.00;99.90;;;;;;5003381;28;20034;-86
2023/11/30 00:02:36;;;;;;;2.17;0.70;;;-2.00;99.90;;;;;;5008865;28;20052;-88
2023/11/30 00:05:06;;;;;;;2.33;0.75;;;-2.00;99.90;;;;;;4991672;28;20054;-89
2023/11/30 00:07:32;;;;;;;2.50;0.70;;;-2.10;99.90;;;;;;5008747;28;20084;-85
2023/11/30 00:09:58;;;;;;;2.95;0.70;;;-2.00;99.90;;;;;;5004780;28;20065;-83
2023/11/30 00:12:23;;;;;;;3.83;0.85;;;-2.10;99.90;;;;;;4988474;28;20029;-87
2023/11/30 00:14:49;;;;;;;2.10;0.70;;;-2.00;99.90;;;;;;4992820;28;20034;-82
2023/11/30 00:17:15;;;;;;;1.90;0.60;;;-2.00;99.90;;;;;;5007701;28;20088;-85
2023/11/30 00:19:40;;;;;;;2.63;0.57;;;-2.00;99.90;;;;;;5003841;28;20558;-89
2023/11/30 00:22:06;;;;;;;2.28;0.77;;;-2.00;99.90;;;;;;5009893;28;20034;-85
2023/11/30 00:24:32;;;;;;;2.40;0.70;;;-2.10;99.90;;;;;;5010635;28;20068;-83
2023/11/30 00:26:57;;;;;;;3.42;0.60;;;-2.10;99.90;;;;;;4990028;28;20030;-82
2023/11/30 00:29:23;;;;;;;1.80;0.57;;;-2.20;99.90;;;;;;4991016;28;20022;-87
2023/11/30 00:31:49;;;;;;;2.80;0.73;;;-2.10;99.90;;;;;;4992024;28;20471;-84
2023/11/30 00:34:14;;;;;;;2.38;0.68;;;-2.00;99.90;;;;;;5009357;28;20177;-89
2023/11/30 00:36:40;;;;;;;3.00;0.70;;;-2.10;99.90;;;;;;4988043;28;20034;-88
2023/11/30 00:39:08;;;;;;;2.50;0.90;;;-2.20;99.90;;;;;;4991828;28;20033;-88
2023/11/30 00:41:34;;;;;;;2.47;0.68;;;-2.30;99.90;;;;;;5007362;28;20382;-87
2023/11/30 00:43:59;;;;;;;3.03;1.00;;;-2.30;99.90;;;;;;5000993;28;20044;-84
2023/11/30 00:46:25;;;;;;;2.45;0.88;;;-2.30;99.90;;;;;;5001904;28;21552;-85
2023/11/30 00:48:51;;;;;;;2.65;0.70;;;-2.40;99.90;;;;;;4992675;28;20033;-86
2023/11/30 00:51:17;;;;;;;2.45;0.70;;;-2.40;99.90;;;;;;4991245;28;20096;-87
2023/11/30 00:53:42;;;;;;;2.30;0.60;;;-2.30;99.90;;;;;;4993107;28;20057;-85
2023/11/30 00:56:10;;;;;;;2.20;0.70;;;-2.30;99.90;;;;;;4990349;28;20053;-85
2023/11/30 00:58:36;;;;;;;2.25;0.90;;;-2.50;99.90;;;;;;5000595;28;20101;-85
2023/11/30 01:01:01;;;;;;;2.00;0.65;;;-2.40;99.90;;;;;;5007995;28;20092;-87
2023/11/30 01:03:27;;;;;;;1.98;0.60;;;-2.40;99.90;;;;;;4988913;28;20045;-82
2023/11/30 01:05:53;;;;;;;1.70;0.60;;;-2.40;99.90;;;;;;5007723;28;20077;-86
2023/11/30 01:08:19;;;;;;;1.98;0.60;;;-2.20;99.90;;;;;;5007208;28;20113;-86
2023/11/30 01:10:45;;;;;;;2.60;0.70;;;-2.10;99.90;;;;;;4991933;28;20350;-82
2023/11/30 01:13:10;;;;;;;1.75;0.50;;;-2.00;99.90;;;;;;5007200;28;20540;-84
2023/11/30 01:15:36;;;;;;;1.80;0.60;;;-1.90;99.90;;;;;;5006329;28;20030;-84
2023/11/30 01:18:04;;;;;;;1.70;0.60;;;-2.00;99.90;;;;;;5006271;28;20034;-83
2023/11/30 01:20:32;;;;;;;2.28;0.65;;;-1.90;99.90;;;;;;4989629;28;20426;-84
2023/11/30 01:22:57;;;;;;;1.52;0.60;;;-1.90;99.90;;;;;;5007466;28;20038;-88
2023/11/30 01:25:23;;;;;;;1.63;0.60;;;-1.90;99.90;;;;;;5007723;28;20053;-82
2023/11/30 01:27:50;;;;;;;1.85;0.60;;;-2.10;99.90;;;;;;5006070;28;20471;-84
2023/11/30 01:30:16;;;;;;;1.75;0.50;;;-2.20;99.90;;;;;;5019113;28;20018;-89
2023/11/30 01:32:42;;;;;;;1.30;0.50;;;-2.00;99.90;;;;;;4988239;28;20755;-82
2023/11/30 01:35:08;;;;;;;3.13;0.60;;;-1.90;99.90;;;;;;5005361;28;20425;-83
2023/11/30 01:37:34;;;;;;;2.38;0.60;;;-1.90;99.90;;;;;;4989579;28;20030;-91
2023/11/30 01:39:59;;;;;;;1.50;0.50;;;-2.00;99.90;;;;;;5006632;28;20102;-85
2023/11/30 01:42:25;;;;;;;1.77;0.68;;;-1.90;99.90;;;;;;5002735;28;20112;-86
2023/11/30 01:44:51;;;;;;;1.65;0.70;;;-2.10;99.90;;;;;;5006269;28;20396;-84
2023/11/30 01:47:17;;;;;;;1.92;0.55;;;-1.90;99.90;;;;;;5013221;28;20038;-87
2023/11/30 01:49:43;;;;;;;2.47;0.75;;;-2.00;99.90;;;;;;5005742;28;20033;-89
2023/11/30 01:52:09;;;;;;;2.03;0.57;;;-2.00;99.90;;;;;;4986829;28;20605;-81
2023/11/30 01:54:35;;;;;;;2.85;0.93;;;-2.00;99.90;;;;;;4982120;28;20034;-83
2023/11/30 01:57:02;;;;;;;2.03;0.70;;;-2.00;99.90;;;;;;4989608;28;20037;-82
2023/11/30 01:59:29;;;;;;;2.13;0.70;;;-2.00;99.90;;;;;;5007069;28;20382;-84
2023/11/30 02:01:55;;;;;;;2.00;0.70;;;-2.00;99.90;;;;;;4993204;28;20062;-83
2023/11/30 02:04:21;;;;;;;2.15;0.70;;;-1.90;99.90;;;;;;5005026;28;20433;-86
2023/11/30 02:06:47;;;;;;;2.92;1.05;;;-1.80;99.90;;;;;;5005456;28;20042;-83
2023/11/30 02:09:13;;;;;;;2.08;0.70;;;-1.70;99.90;;;;;;4989504;28;20418;-85
2023/11/30 02:11:40;;;;;;;2.67;0.90;;;-1.90;99.90;;;;;;5005772;28;20037;-84
2023/11/30 02:14:06;;;;;;;1.90;0.70;;;-2.10;99.90;;;;;;4988655;28;20033;-82
2023/11/30 02:16:31;;;;;;;2.80;1.02;;;-2.20;99.90;;;;;;5003125;28;20418;-82
2023/11/30 02:18:57;;;;;;;2.67;0.80;;;-2.20;99.90;;;;;;5005686;28;20080;-81
2023/11/30 02:21:23;;;;;;;2.58;0.90;;;-2.20;99.90;;;;;;5003925;28;20037;-85
2023/11/30 02:23:49;;;;;;;2.58;0.70;;;-2.30;99.90;;;;;;4989407;28;20426;-82
2023/11/30 02:26:16;;;;;;;2.10;0.90;;;-2.20;99.90;;;;;;5001733;28;20674;-85
2023/11/30 02:28:42;;;;;;;3.90;1.05;;;-2.20;99.90;;;;;;5003415;28;20021;-86
2023/11/30 02:31:08;;;;;;;1.98;0.73;;;-2.30;99.90;;;;;;4998730;28;20122;-83
2023/11/30 02:33:34;;;;;;;2.22;0.70;;;-2.20;99.90;;;;;;5014708;28;20390;-88
2023/11/30 02:36:00;;;;;;;2.35;0.70;;;-2.20;99.90;;;;;;5006568;28;20060;-82
2023/11/30 02:38:26;;;;;;;2.47;0.70;;;-2.30;99.90;;;;;;5005567;28;20026;-85
2023/11/30 02:40:51;;;;;;;2.30;0.75;;;-2.20;99.90;;;;;;5006394;28;20458;-86
2023/11/30 02:43:17;;;;;;;2.50;0.80;;;-2.20;99.90;;;;;;5002216;28;20058;-87
2023/11/30 02:45:43;;;;;;;2.47;0.73;;;-2.20;99.90;;;;;;4998590;28;20038;-85
2023/11/30 02:48:08;;;;;;;3.03;1.45;;;-2.10;99.90;;;;;;5005713;28;20026;-84
2023/11/30 02:50:34;;;;;;;2.20;0.70;;;-2.10;99.90;;;;;;5001321;28;20033;-87
2023/11/30 02:53:00;;;;;;;2.38;0.80;;;-2.20;99.90;;;;;;4993323;28;20030;-87
2023/11/30 02:55:25;;;;;;;3.58;1.00;;;-2.30;99.90;;;;;;5005411;28;20079;-85
2023/11/30 02:57:51;;;;;;;3.00;0.90;;;-2.40;99.90;;;;;;4986059;28;20118;-85
2023/11/30 03:00:17;;;;;;;2.50;0.70;;;-2.40;99.90;;;;;;5003947;28;20029;-85
2023/11/30 03:02:43;;;;;;;2.35;1.05;;;-2.30;99.90;;;;;;4993239;28;20037;-84
2023/11/30 03:05:08;;;;;;;2.70;0.90;;;-2.30;99.90;;;;;;5004819;28;20026;-82
2023/11/30 03:07:34;;;;;;;2.25;0.75;;;-2.30;99.90;;;;;;4999713;28;20030;-86
2023/11/30 03:10:00;;;;;;;3.42;1.05;;;-2.10;99.90;;;;;;5004645;28;20164;-84
2023/11/30 03:12:25;;;;;;;2.63;1.00;;;-2.20;99.90;;;;;;5011412;28;20057;-84
2023/11/30 03:14:51;;;;;;;3.80;1.08;;;-2.10;99.90;;;;;;5008963;28;20627;-82
2023/11/30 03:17:16;;;;;;;3.35;1.00;;;-2.00;99.90;;;;;;4993065;28;20022;-84
2023/11/30 03:19:42;;;;;;;2.60;0.80;;;-2.10;99.90;;;;;;5007483;28;20089;-86
2023/11/30 03:22:08;;;;;;;3.17;0.95;;;-2.20;99.90;;;;;;5009390;28;20029;-82
2023/11/30 03:24:34;;;;;;;3.13;1.00;;;-2.10;99.90;;;;;;5019113;28;20038;-85
2023/11/30 03:27:00;;;;;;;2.58;0.90;;;-2.10;99.90;;;;;;5002092;28;20491;-87
2023/11/30 03:29:25;;;;;;;2.88;1.27;;;-2.20;99.90;;;;;;5008708;28;20022;-83
2023/11/30 03:31:51;;;;;;;3.42;1.02;;;-2.20;99.90;;;;;;5008243;28;20026;-82
2023/11/30 03:34:17;;;;;;;3.42;1.08;;;-2.20;99.90;;;;;;4990411;28;20029;-86
2023/11/30 03:36:42;;;;;;;3.35;1.10;;;-2.30;99.90;;;;;;4992706;28;20533;-84
2023/11/30 03:39:08;;;;;;;3.35;1.38;;;-2.30;99.90;;;;;;5008810;28;20106;-83
2023/11/30 03:41:35;;;;;;;3.40;0.90;;;-2.20;99.90;;;;;;4993152;28;20038;-85
2023/11/30 03:44:01;;;;;;;2.97;1.02;;;-2.10;99.90;;;;;;5007930;28;20517;-85
2023/11/30 03:46:27;;;;;;;3.72;0.85;;;-2.10;99.90;;;;;;5009690;28;20379;-83
2023/11/30 03:48:54;;;;;;;3.13;0.90;;;-2.00;99.90;;;;;;4989007;28;20030;-84
2023/11/30 03:51:20;;;;;;;3.15;1.40;;;-1.90;99.90;;;;;;4989199;28;20029;-84
2023/11/30 03:53:46;;;;;;;3.10;1.00;;;-1.90;99.90;;;;;;4993827;28;20029;-84
2023/11/30 03:56:12;;;;;;;2.72;1.17;;;-1.70;99.90;;;;;;4993948;28;20022;-83
2023/11/30 03:58:38;;;;;;;3.10;1.15;;;-1.60;99.90;;;;;;5008070;28;20468;-84
2023/11/30 04:01:05;;;;;;;3.28;1.00;;;-1.50;99.90;;;;;;5008896;28;20097;-84
2023/11/30 04:03:31;;;;;;;4.35;1.58;;;-1.50;99.90;;;;;;5001880;28;20037;-83
2023/11/30 04:05:57;;;;;;;3.90;1.63;;;-1.50;99.90;;;;;;4993048;28;20033;-84
2023/11/30 04:08:22;;;;;;;3.55;1.23;;;-1.40;99.90;;;;;;4992545;28;20026;-85
2023/11/30 04:10:48;;;;;;;3.13;1.23;;;-1.30;99.90;;;;;;4992606;28;20033;-82
2023/11/30 04:13:14;;;;;;;2.90;1.08;;;-1.20;99.90;;;;;;5007176;28;20022;-84
2023/11/30 04:15:40;;;;;;;3.70;1.20;;;-1.20;99.90;;;;;;4988443;28;20066;-84
2023/11/30 04:18:05;;;;;;;4.07;1.45;;;-1.30;99.90;;;;;;5005620;28;20034;-82
2023/11/30 04:20:31;;;;;;;2.92;1.30;;;-1.30;99.90;;;;;;4992673;28;20037;-83
2023/11/30 04:22:57;;;;;;;2.90;1.00;;;-1.30;99.90;;;;;;4993548;28;20037;-83
2023/11/30 04:25:23;;;;;;;3.53;1.40;;;-1.20;99.90;;;;;;5008265;28;20441;-83
2023/11/30 04:27:48;;;;;;;3.25;1.30;;;-1.20;99.90;;;;;;5006319;28;20376;-83
2023/11/30 04:30:14;;;;;;;3.67;1.60;;;-1.20;99.90;;;;;;5019136;28;20030;-83
2023/11/30 04:32:40;;;;;;;3.40;1.38;;;-1.10;99.90;;;;;;5007798;28;20034;-83
2023/11/30 04:35:06;;;;;;;3.83;1.20;;;-1.00;99.90;;;;;;5003361;28;20345;-87
2023/11/30 04:37:32;;;;;;;4.15;1.42;;;-1.10;99.90;;;;;;4993306;28;20379;-84
2023/11/30 04:39:57;;;;;;;4.00;1.20;;;-1.00;99.90;;;;;;4992957;28;20029;-84
2023/11/30 04:42:23;;;;;;;3.40;1.35;;;-1.00;99.90;;;;;;4990817;28;20471;-85
2023/11/30 04:44:49;;;;;;;4.25;1.67;;;-1.00;99.90;;;;;;4987907;28;20068;-84
2023/11/30 04:47:15;;;;;;;4.40;2.00;;;-1.00;99.90;;;;;;5006035;28;20077;-83
2023/11/30 04:49:41;;;;;;;4.57;1.90;;;-1.10;99.90;;;;;;5001837;28;20471;-86
2023/11/30 04:52:06;;;;;;;4.28;1.50;;;-1.10;99.90;;;;;;4989978;28;20024;-83
2023/11/30 04:54:32;;;;;;;6.00;1.70;;;-1.10;99.90;;;;;;5007419;28;20042;-84
2023/11/30 04:56:59;;;;;;;4.20;1.80;;;-1.00;99.90;;;;;;5009519;28;20108;-83
2023/11/30 04:59:24;;;;;;;3.67;1.67;;;-1.00;99.90;;;;;;5009140;28;20219;-83
2023/11/30 05:01:50;;;;;;;3.67;1.52;;;-0.90;99.90;;;;;;5004324;28;20438;-83
2023/11/30 05:04:15;;;;;;;3.53;1.52;;;-0.90;99.90;;;;;;5022134;28;20529;-83
2023/11/30 05:06:41;;;;;;;4.20;1.67;;;-0.80;99.90;;;;;;4989607;28;20407;-83
2023/11/30 05:09:07;;;;;;;5.05;1.48;;;-0.80;99.90;;;;;;4990745;28;20076;-84
2023/11/30 05:11:32;;;;;;;3.78;1.80;;;-0.80;99.90;;;;;;5006575;28;20596;-83
2023/11/30 05:13:58;;;;;;;4.85;2.38;;;-0.90;99.90;;;;;;4987730;28;20510;-82
2023/11/30 05:16:24;;;;;;;5.43;2.00;;;-0.90;99.90;;;;;;5005703;28;20064;-83
2023/11/30 05:18:50;;;;;;;3.95;1.42;;;-0.90;99.90;;;;;;4990595;28;20026;-82
2023/11/30 05:21:16;;;;;;;3.30;1.40;;;-0.90;99.90;;;;;;4988281;28;20479;-84
2023/11/30 05:23:42;;;;;;;3.28;1.20;;;-0.80;99.90;;;;;;5007229;28;20022;-84
2023/11/30 05:26:07;;;;;;;4.95;2.10;;;-0.70;99.90;;;;;;4988575;28;20041;-86
2023/11/30 05:28:33;;;;;;;4.40;2.15;;;-0.70;99.90;;;;;;5005055;28;20406;-85
2023/11/30 05:30:59;;;;;;;3.95;1.83;;;-0.70;99.90;;;;;;5003512;28;20029;-84
2023/11/30 05:33:27;;;;;;;3.72;1.60;;;-0.70;99.90;;;;;;4992187;28;20034;-86
2023/11/30 05:35:53;;;;;;;4.97;1.95;;;-0.70;99.90;;;;;;4988331;28;20049;-85
2023/11/30 05:38:19;;;;;;;4.13;1.77;;;-0.70;99.90;;;;;;5007643;28;20026;-84
2023/11/30 05:40:45;;;;;;;3.80;1.63;;;-0.60;99.90;;;;;;4991014;28;20037;-86
2023/11/30 05:43:11;;;;;;;5.50;2.30;;;-0.60;99.90;;;;;;4989517;28;20045;-86
2023/11/30 05:45:37;;;;;;;4.80;1.80;;;-0.60;99.90;;;;;;4990173;28;20070;-84
2023/11/30 05:48:03;;;;;;;3.75;1.85;;;-0.70;99.90;;;;;;4990525;28;20026;-86
2023/11/30 05:50:28;;;;;;;4.63;2.03;;;-0.70;99.90;;;;;;4994356;28;20044;-84
2023/11/30 05:52:57;;;;;;;4.53;2.28;;;-0.70;99.90;;;;;;4995727;28;20490;-86
2023/11/30 05:55:22;;;;;;;5.68;2.25;;;-0.60;99.90;;;;;;5012815;28;20062;-84
2023/11/30 05:57:48;;;;;;;4.97;2.08;;;-0.60;99.90;;;;;;4993767;28;20457;-86
2023/11/30 06:00:16;;;;;;;3.13;1.30;;;-0.60;99.90;;;;;;5007624;28;20026;-86
2023/11/30 06:02:41;;;;;;;3.97;1.95;;;-0.50;99.90;;;;;;4990648;28;20038;-84
2023/11/30 06:05:07;;;;;;;3.75;1.98;;;-0.60;99.90;;;;;;4991971;28;20021;-84
2023/11/30 06:07:33;;;;;;;3.90;1.73;;;-0.60;99.90;;;;;;5008363;28;20052;-84
2023/11/30 06:09:59;;;;;;;3.38;1.50;;;-0.60;99.90;;;;;;5008601;28;20068;-84
2023/11/30 06:12:25;;;;;;;3.70;1.40;;;-0.60;99.90;;;;;;5006059;28;20426;-86
2023/11/30 06:14:51;;;;;;;3.50;1.33;;;-0.60;99.90;;;;;;5021985;28;20479;-83
2023/11/30 06:17:17;;;;;;;3.63;1.45;;;-0.60;99.90;;;;;;4991086;28;20030;-84
2023/11/30 06:19:43;;;;;;;3.00;1.10;;;-0.60;99.90;;;;;;4990236;28;20108;-86
2023/11/30 06:22:09;;;;;;;3.15;1.50;;;-0.60;99.90;;;;;;5007111;28;20032;-85
2023/11/30 06:24:35;;;;;;;3.75;1.38;;;-0.50;99.90;;;;;;4991000;28;20031;-85
2023/11/30 06:27:04;;;;;;;2.92;0.90;;;-0.50;99.90;;;;;;4988933;28;20037;-86
2023/11/30 06:29:29;;;;;;;4.03;1.92;;;-0.60;99.90;;;;;;5006191;28;20037;-86
2023/11/30 06:32:00;;;;;;;5.97;2.90;;;-0.60;99.90;;;;;;5007436;28;20033;-84
2023/11/30 06:34:26;;;;;;;8.02;2.05;;;-0.60;99.90;;;;;;4990565;28;20037;-86
2023/11/30 06:36:52;;;;;;;4.03;1.63;;;-0.60;99.90;;;;;;4988665;28;20034;-85
2023/11/30 06:39:20;;;;;;;3.78;1.88;;;-0.60;99.90;;;;;;4988795;28;20026;-85
2023/11/30 06:41:49;;;;;;;3.67;1.92;;;-0.50;99.90;;;;;;4989164;28;20038;-85
2023/11/30 06:44:15;;;;;;;3.83;1.50;;;-0.60;99.90;;;;;;4987213;28;20137;-84
2023/11/30 06:46:44;;;;;;;5.20;2.13;;;-0.60;99.90;;;;;;5008111;28;20456;-84
2023/11/30 06:49:10;;;;;;;4.88;2.00;;;-0.50;99.90;;;;;;5006585;28;20022;-85
2023/11/30 06:51:36;;;;;;;3.55;1.10;;;-0.50;99.90;;;;;;5007110;28;20037;-85
2023/11/30 06:54:02;;;;;;;4.75;2.03;;;-0.50;99.90;;;;;;5004760;28;20022;-85
2023/11/30 06:56:28;;;;;;;4.38;1.80;;;-0.50;99.90;;;;;;4990267;28;20076;-83
2023/11/30 06:58:53;;;;;;;4.07;1.98;;;-0.50;99.90;;;;;;4990545;28;20018;-83
2023/11/30 07:01:23;;;;;;;4.13;1.60;;;-0.50;99.90;;;;;;5007161;28;20548;-84
2023/11/30 07:03:49;;;;;;;;;;;-0.40;99.90;;;;;;5006738;28;20069;-85
2023/11/30 07:06:15;;;;;;;4.38;1.30;;;-0.40;99.90;;;;;;4988841;28;19960;-85
2023/11/30 07:08:41;;;;;;;5.88;1.38;;;-0.40;99.90;;;;;;5006598;28;20038;-85
2023/11/30 07:11:10;;;;;;;5.72;1.92;;;-0.40;99.90;;;;;;4990218;28;20434;-85
2023/11/30 07:13:36;;;;;;;5.05;2.03;;;-0.40;99.90;;;;;;5005787;28;20109;-84
2023/11/30 07:16:02;;;;;;;5.35;1.85;;;-0.40;99.90;;;;;;5004805;28;20120;-83
2023/11/30 07:18:29;;;;;;;5.53;2.47;;;-0.40;99.90;;;;;;4952634;28;20046;-84
2023/11/30 07:20:55;;;;;;;4.43;2.00;;;-0.40;99.90;;;;;;5006360;28;20038;-84
2023/11/30 07:23:21;;;;;;;6.00;2.45;;;-0.30;99.90;;;;;;5005041;28;20034;-83
2023/11/30 07:25:46;;;;;;;5.63;2.45;;;-0.30;99.90;;;;;;5003978;28;20030;-85
2023/11/30 07:28:12;;;;;;;9.38;2.65;;;-0.30;99.90;;;;;;4998477;28;20072;-83
2023/11/30 07:30:40;;;;;;;7.28;2.67;;;-0.30;99.90;;;;;;5005939;28;20068;-84
2023/11/30 07:33:08;;;;;;;7.40;3.03;;;-0.30;99.90;;;;;;5006558;28;20026;-84
2023/11/30 07:35:36;;;;;;;7.18;2.92;;;-0.30;99.90;;;;;;5007219;28;20034;-86
2023/11/30 07:38:02;;;;;;;7.53;2.80;;;-0.30;99.90;;;;;;5006933;28;20209;-84
2023/11/30 07:40:27;;;;;;;7.03;3.08;;;-0.30;99.90;;;;;;4988538;28;20478;-84
2023/11/30 07:42:53;;;;;;;8.40;3.35;;;-0.20;99.90;;;;;;4990828;28;20038;-85
2023/11/30 07:45:18;;;;;;;8.15;2.88;;;-0.20;99.90;;;;;;4991180;28;20033;-85
2023/11/30 07:47:44;;;;;;;7.22;3.15;;;-0.20;99.90;;;;;;4992703;28;20045;-86
2023/11/30 07:50:10;;;;;;;6.43;2.53;;;-0.20;99.90;;;;;;5010517;28;20037;-85
2023/11/30 07:52:37;;;;;;;7.32;3.08;;;-0.20;99.90;;;;;;4993270;28;20056;-85
2023/11/30 07:55:03;;;;;;;10.82;4.65;;;-0.20;99.90;;;;;;5009173;28;20064;-85
2023/11/30 07:57:29;;;;;;;10.10;4.28;;;-0.10;99.90;;;;;;4993899;28;20049;-85
2023/11/30 07:59:55;;;;;;;9.98;4.03;;;-0.20;99.90;;;;;;5010495;28;20041;-84
2023/11/30 08:02:21;;;;;;;11.07;4.38;;;-0.10;99.90;;;;;;5009691;28;20030;-85
2023/11/30 08:04:46;;;;;;;8.05;3.30;;;-0.10;99.90;;;;;;4989745;28;20519;-84
2023/11/30 08:07:12;;;;;;;9.10;4.15;;;-0.10;99.90;;;;;;4993628;28;20057;-84
2023/11/30 08:09:38;;;;;;;12.07;5.32;;;-0.10;99.90;;;;;;5022217;28;20080;-85
2023/11/30 08:12:04;;;;;;;10.05;4.72;;;-0.10;99.90;;;;;;4993254;28;20103;-83
2023/11/30 08:14:30;;;;;;;11.75;5.15;;;-0.10;99.90;;;;;;5009170;28;20030;-84
2023/11/30 08:16:55;;;;;;;11.50;5.07;;;-0.10;99.90;;;;;;5009158;28;20040;-85
2023/11/30 08:19:21;;;;;;;12.05;5.28;;;-0.10;99.90;;;;;;4996205;28;20045;-85
2023/11/30 08:21:47;;;;;;;11.02;4.28;;;-0.10;99.90;;;;;;5007760;28;20113;-86
2023/11/30 08:24:13;;;;;;;10.82;4.63;;;-0.10;99.90;;;;;;5009049;28;20041;-85
2023/11/30 08:26:38;;;;;;;9.55;4.22;;;-0.10;99.90;;;;;;4990094;28;20038;-84
2023/11/30 08:29:04;;;;;;;11.82;4.82;;;0.00;99.90;;;;;;5005330;28;20034;-85
2023/11/30 08:31:30;;;;;;;10.02;4.07;;;-0.10;99.90;;;;;;4993184;28;20030;-85
2023/11/30 08:33:56;;;;;;;12.18;5.95;;;0.00;99.90;;;;;;4992212;28;20474;-85
2023/11/30 08:36:22;;;;;;;9.25;4.07;;;0.00;99.90;;;;;;5007826;28;20079;-84
2023/11/30 08:38:48;;;;;;;10.30;4.65;;;0.00;99.90;;;;;;4992896;28;20108;-85
2023/11/30 08:41:14;;;;;;;10.38;4.07;;;0.10;99.90;;;;;;5009358;28;20026;-83
2023/11/30 08:43:40;;;;;;;9.63;4.28;;;0.10;99.90;;;;;;5008857;28;20054;-84
2023/11/30 08:46:06;;;;;;;10.98;4.75;;;0.10;99.90;;;;;;5009792;28;20041;-85
2023/11/30 08:48:31;;;;;;;9.63;4.45;;;0.10;99.90;;;;;;5008484;28;20052;-85
2023/11/30 08:50:57;;;;;;;10.18;4.45;;;0.10;99.90;;;;;;4992989;28;20414;-83
2023/11/30 08:53:24;;;;;;;8.88;4.15;;;0.10;99.90;;;;;;4991074;28;20058;-85
2023/11/30 08:55:49;;;;;;;10.80;5.68;;;0.10;99.90;;;;;;4988630;28;20018;-85
2023/11/30 08:58:16;;;;;;;17.90;9.60;;;0.10;99.90;;;;;;5000826;28;20381;-84
2023/11/30 09:00:42;;;;;;;13.85;7.13;;;0.10;99.90;;;;;;5003256;28;20045;-85
2023/11/30 09:03:08;;;;;;;14.77;7.18;;;0.10;99.90;;;;;;5002623;28;20037;-84
2023/11/30 09:05:33;;;;;;;20.50;8.95;;;0.10;99.90;;;;;;5004788;28;20042;-85
2023/11/30 09:07:59;;;;;;;28.77;13.07;;;0.10;99.90;;;;;;5002046;28;20041;-85
2023/11/30 09:10:25;;;;;;;27.02;13.60;;;0.10;99.90;;;;;;5003838;28;20025;-84
2023/11/30 09:12:52;;;;;;;26.38;13.93;;;0.00;99.90;;;;;;4986299;28;20421;-85
2023/11/30 09:15:19;;;;;;;22.67;11.27;;;0.00;99.90;;;;;;4999489;28;20036;-84
2023/11/30 09:17:45;;;;;;;24.85;13.23;;;0.10;99.90;;;;;;5016462;28;20096;-84
2023/11/30 09:20:11;;;;;;;29.52;14.38;;;0.10;99.90;;;;;;5005110;28;20429;-84
2023/11/30 09:22:37;;;;;;;29.15;14.25;;;0.00;99.90;;;;;;5001680;28;20030;-82
2023/11/30 09:25:03;;;;;;;24.95;11.80;;;0.10;99.90;;;;;;4984348;28;20034;-85
2023/11/30 09:27:29;;;;;;;20.45;10.23;;;0.20;99.90;;;;;;5003123;28;20033;-84
2023/11/30 09:29:55;;;;;;;18.70;8.02;;;0.30;99.90;;;;;;4986666;28;20239;-83
2023/11/30 09:32:22;;;;;;;17.92;8.18;;;0.40;99.90;;;;;;5006459;28;20073;-83
2023/11/30 09:34:48;;;;;;;17.20;6.82;;;0.30;99.90;;;;;;5003856;28;20027;-86
2023/11/30 09:37:14;;;;;;;14.90;6.78;;;0.40;99.90;;;;;;5003153;28;20028;-84
2023/11/30 09:39:40;;;;;;;13.48;6.25;;;0.40;99.90;;;;;;4999863;28;20022;-83
2023/11/30 09:42:09;;;;;;;15.93;6.72;;;0.40;99.90;;;;;;4986795;28;20026;-83
2023/11/30 09:44:34;;;;;;;16.75;7.18;;;0.50;99.90;;;;;;5003672;28;22996;-84
2023/11/30 09:47:00;;;;;;;17.05;6.78;;;0.60;99.90;;;;;;5000019;28;20038;-85
2023/11/30 09:49:26;;;;;;;15.98;7.10;;;0.60;99.90;;;;;;5000433;28;20120;-85
2023/11/30 09:51:52;;;;;;;16.55;6.93;;;0.50;99.90;;;;;;5003402;28;20112;-82
2023/11/30 09:54:19;;;;;;;15.93;7.30;;;0.60;99.90;;;;;;5000730;28;20304;-85
2023/11/30 09:56:45;;;;;;;19.27;8.30;;;0.60;99.90;;;;;;5001099;28;20038;-84
2023/11/30 09:59:11;;;;;;;21.90;8.93;;;0.50;99.90;;;;;;5005171;28;20026;-84
2023/11/30 10:01:39;;;;;;;15.15;7.18;;;0.50;99.90;;;;;;5002428;28;20034;-83
2023/11/30 10:04:15;;;;;;;25.02;11.45;;;0.50;99.90;;;;;;4999411;28;20057;-83
2023/11/30 10:06:41;;;;;;;26.42;11.45;;;0.50;99.90;;;;;;4987390;28;20049;-84
2023/11/30 10:09:10;;;;;;;23.48;10.85;;;0.60;99.90;;;;;;5000967;28;20041;-85
2023/11/30 10:11:37;;;;;;;19.05;9.13;;;0.70;99.90;;;;;;5002838;28;20037;-84
2023/11/30 10:14:03;;;;;;;28.10;12.77;;;0.80;99.90;;;;;;5000918;28;20038;-84
2023/11/30 10:16:28;;;;;;;25.83;11.07;;;0.80;99.90;;;;;;5003960;28;20030;-83
2023/11/30 10:18:54;;;;;;;25.38;11.10;;;1.00;99.90;;;;;;5001547;28;20030;-82
2023/11/30 10:21:21;;;;;;;23.52;10.43;;;1.00;99.90;;;;;;5013416;28;20029;-84
2023/11/30 10:23:47;;;;;;;22.80;11.35;;;1.10;99.90;;;;;;4999080;28;20029;-82
2023/11/30 10:26:16;;;;;;;21.92;10.50;;;1.20;99.90;;;;;;5001733;28;20033;-82
2023/11/30 10:28:42;;;;;;;23.90;11.48;;;1.20;99.90;;;;;;5003294;28;20029;-85
2023/11/30 10:31:10;;;;;;;27.00;13.30;;;1.20;99.90;;;;;;5001530;28;20030;-82
2023/11/30 10:33:38;;;;;;;29.73;13.68;;;1.20;99.90;;;;;;5015809;28;20518;-83
2023/11/30 10:36:06;;;;;;;28.80;13.65;;;1.20;99.90;;;;;;4980932;28;20025;-84
2023/11/30 10:38:36;;;;;;;25.38;12.32;;;1.30;99.90;;;;;;5000822;28;20033;-82
2023/11/30 10:41:12;;;;;;;20.80;10.18;;;1.30;99.90;;;;;;5002977;28;20128;-85
2023/11/30 10:43:43;;;;;;;24.33;11.32;;;1.40;99.90;;;;;;5002219;28;20046;-83
2023/11/30 10:46:13;;;;;;;23.75;10.82;;;1.40;99.90;;;;;;5003236;28;20037;-84
2023/11/30 10:48:39;;;;;;;24.27;10.80;;;1.50;99.90;;;;;;5001057;28;20064;-82
2023/11/30 10:51:07;;;;;;;24.23;10.15;;;1.40;99.90;;;;;;5002777;28;20041;-82
2023/11/30 10:53:53;;;;;;;23.83;10.57;;;1.40;99.90;;;;;;5001422;28;20398;-82
2023/11/30 10:56:19;;;;;;;22.15;9.80;;;1.40;99.90;;;;;;5000531;28;20590;-84
2023/11/30 10:58:47;;;;;;;25.85;11.30;;;1.50;99.90;;;;;;5002953;28;20585;-83
2023/11/30 11:01:15;;;;;;;24.77;11.30;;;1.50;99.90;;;;;;5000294;28;20114;-84
2023/11/30 11:03:46;;;;;;;25.42;10.50;;;1.50;99.90;;;;;;5003513;28;20557;-82
2023/11/30 11:06:12;;;;;;;22.23;10.77;;;1.50;99.90;;;;;;5002140;28;20046;-83
2023/11/30 11:08:38;;;;;;;23.48;11.77;;;1.60;99.90;;;;;;4984250;28;20531;-84
2023/11/30 11:11:08;;;;;;;24.75;11.02;;;1.70;99.90;;;;;;4998293;28;20124;-83
2023/11/30 11:13:46;;;;;;;20.38;9.23;;;1.70;99.90;;;;;;4998493;28;20041;-84
2023/11/30 11:16:11;;;;;;;24.88;11.00;;;1.70;99.90;;;;;;4998158;28;20061;-83
2023/11/30 11:18:42;;;;;;;26.00;12.52;;;1.70;99.90;;;;;;5001718;28;20030;-84
2023/11/30 11:21:26;;;;;;;25.55;11.50;;;1.70;99.90;;;;;;4999293;28;20382;-82
2023/11/30 11:23:51;;;;;;;25.83;11.55;;;1.80;99.90;;;;;;5006557;28;20145;-82
2023/11/30 11:26:17;;;;;;;26.02;12.43;;;1.80;99.90;;;;;;5006273;28;20280;-84
2023/11/30 11:28:45;;;;;;;24.73;12.20;;;1.80;99.90;;;;;;5005766;28;20085;-83
2023/11/30 11:31:12;;;;;;;26.20;12.50;;;1.90;99.90;;;;;;5005954;28;20029;-84
2023/11/30 11:33:41;;;;;;;27.55;13.75;;;1.80;99.90;;;;;;5004845;28;20030;-82
2023/11/30 11:36:07;;;;;;;28.38;13.10;;;1.80;99.90;;;;;;5018639;28;20050;-82
2023/11/30 11:38:32;;;;;;;24.50;12.35;;;1.90;99.90;;;;;;5005931;28;20026;-83
2023/11/30 11:40:58;;;;;;;27.73;12.77;;;2.00;99.90;;;;;;5016228;28;20333;-83
2023/11/30 11:43:24;;;;;;;26.23;12.60;;;2.10;99.90;;;;;;5003624;28;20045;-83
2023/11/30 11:45:50;;;;;;;26.77;12.63;;;2.10;99.90;;;;;;5003234;28;20096;-84
2023/11/30 11:48:16;;;;;;;30.63;14.70;;;2.10;99.90;;;;;;4988826;28;20037;-82
2023/11/30 11:50:42;;;;;;;25.95;12.82;;;2.10;99.90;;;;;;4985751;28;20053;-84
2023/11/30 11:53:07;;;;;;;24.85;13.40;;;2.10;99.90;;;;;;5004243;28;20030;-84
2023/11/30 11:55:33;;;;;;;29.60;14.63;;;2.10;99.90;;;;;;5003778;28;20093;-84
2023/11/30 11:57:59;;;;;;;27.92;13.02;;;2.10;99.90;;;;;;5003197;28;20033;-84
2023/11/30 12:00:25;;;;;;;23.02;11.45;;;2.10;99.90;;;;;;5002969;28;20037;-83
2023/11/30 12:02:52;;;;;;;23.23;12.52;;;2.10;99.90;;;;;;5005583;28;20026;-84
2023/11/30 12:05:25;;;;;;;26.42;12.55;;;2.20;99.90;;;;;;5003999;28;20030;-84
2023/11/30 12:07:57;;;;;;;31.48;16.38;;;2.10;99.90;;;;;;4988905;28;20042;-84
2023/11/30 12:10:39;;;;;;;26.25;12.82;;;2.00;99.90;;;;;;4988118;28;20071;-82
2023/11/30 12:13:06;;;;;;;36.20;18.48;;;2.00;99.90;;;;;;5006259;28;20026;-84
2023/11/30 12:15:32;;;;;;;38.10;18.67;;;2.00;99.90;;;;;;5002363;28;20386;-83
2023/11/30 12:17:59;;;;;;;44.28;22.95;;;2.00;99.90;;;;;;5004638;28;20073;-83
2023/11/30 12:20:24;;;;;;;54.03;26.67;;;1.90;99.90;;;;;;5001416;28;20038;-83
2023/11/30 12:22:51;;;;;;;46.45;23.08;;;1.90;99.90;;;;;;5004933;28;20117;-83
2023/11/30 12:25:16;;;;;;;51.80;26.17;;;1.90;99.90;;;;;;5005918;28;20033;-82
2023/11/30 12:27:42;;;;;;;46.30;23.50;;;2.00;99.90;;;;;;5004502;28;20054;-83
2023/11/30 12:30:08;;;;;;;49.85;24.05;;;2.00;99.90;;;;;;5005426;28;20136;-82
2023/11/30 12:32:35;;;;;;;43.10;22.17;;;2.00;99.90;;;;;;5014967;28;20376;-83
2023/11/30 12:35:02;;;;;;;49.20;24.60;;;2.00;99.90;;;;;;5004800;28;20022;-83
2023/11/30 12:37:28;;;;;;;54.53;27.20;;;2.00;99.90;;;;;;5017135;28;20044;-83
2023/11/30 12:39:54;;;;;;;60.30;28.27;;;1.90;99.90;;;;;;5003854;28;20390;-83